sensor_id;sensor_type;location;lat;lon;timestamp;temperature;humidity
23143;DHT22;11740;51.168;4.112;2022-10-14T00:00:31;13.90;1.00
23143;DHT22;11740;51.168;4.112;2022-10-14T00:02:58;13.90;28.60
23143;DHT22;11740;51.168;4.112;2022-10-14T00:05:25;13.90;50.30
23143;DHT22;11740;51.168;4.112;2022-10-14T00:07:52;13.90;99.90
23143;DHT22;11740;51.168;4.112;2022-10-14T00:10:19;13.90;99.90
23143;DHT22;11740;51.168;4.112;2022-10-14T00:12:45;13.90;99.90
23143;DHT22;11740;51.168;4.112;2022-10-14T00:15:12;13.90;99.90
23143;DHT22;11740;51.168;4.112;2022-10-14T00:17:39;13.90;99.90
23143;DHT22;11740;51.168;4.112;2022-10-14T00:20:06;13.90;99.90
23143;DHT22;11740;51.168;4.112;2022-10-14T00:22:34;13.90;99.90
23143;DHT22;11740;51.168;4.112;2022-10-14T00:25:01;13.90;99.90
23143;DHT22;11740;51.168;4.112;2022-10-14T00:27:27;13.90;99.90
23143;DHT22;11740;51.168;4.112;2022-10-14T00:29:54;13.90;99.90
23143;DHT22;11740;51.168;4.112;2022-10-14T00:32:21;13.90;99.90
23143;DHT22;11740;51.168;4.112;2022-10-14T00:34:48;13.90;99.90
23143;DHT22;11740;51.168;4.112;2022-10-14T00:37:15;13.90;99.90
23143;DHT22;11740;51.168;4.112;2022-10-14T00:39:41;13.90;99.90
23143;DHT22;11740;51.168;4.112;2022-10-14T00:42:11;13.90;99.90
23143;DHT22;11740;51.168;4.112;2022-10-14T00:47:09;13.90;79.00
23143;DHT22;11740;51.168;4.112;2022-10-14T00:49:37;13.90;99.90
23143;DHT22;11740;51.168;4.112;2022-10-14T00:52:14;13.90;99.90
23143;DHT22;11740;51.168;4.112;2022-10-14T00:55:01;13.90;99.90
23143;DHT22;11740;51.168;4.112;2022-10-14T00:57:30;13.90;99.90
23143;DHT22;11740;51.168;4.112;2022-10-14T01:00:00;13.90;99.90
23143;DHT22;11740;51.168;4.112;2022-10-14T01:02:39;13.90;99.90
23143;DHT22;11740;51.168;4.112;2022-10-14T01:05:08;13.80;99.90
23143;DHT22;11740;51.168;4.112;2022-10-14T01:07:41;13.80;99.90
23143;DHT22;11740;51.168;4.112;2022-10-14T01:10:35;13.90;99.90
23143;DHT22;11740;51.168;4.112;2022-10-14T01:15:43;13.90;63.30
23143;DHT22;11740;51.168;4.112;2022-10-14T01:19:15;13.90;99.90
23143;DHT22;11740;51.168;4.112;2022-10-14T01:21:11;13.90;99.90
23143;DHT22;11740;51.168;4.112;2022-10-14T01:32:22;13.90;99.90
23143;DHT22;11740;51.168;4.112;2022-10-14T01:35:01;13.90;23.80
23143;DHT22;11740;51.168;4.112;2022-10-14T01:37:33;13.90;29.40
23143;DHT22;11740;51.168;4.112;2022-10-14T01:40:05;13.90;99.90
23143;DHT22;11740;51.168;4.112;2022-10-14T01:42:35;13.90;99.90
23143;DHT22;11740;51.168;4.112;2022-10-14T01:45:21;13.90;99.90
23143;DHT22;11740;51.168;4.112;2022-10-14T01:47:49;13.90;99.90
23143;DHT22;11740;51.168;4.112;2022-10-14T01:50:17;13.90;99.90
23143;DHT22;11740;51.168;4.112;2022-10-14T01:52:47;13.90;99.90
23143;DHT22;11740;51.168;4.112;2022-10-14T01:55:25;13.90;99.90
23143;DHT22;11740;51.168;4.112;2022-10-14T01:57:54;14.00;99.90
23143;DHT22;11740;51.168;4.112;2022-10-14T02:00:22;14.00;99.90
23143;DHT22;11740;51.168;4.112;2022-10-14T02:02:50;13.90;99.90
23143;DHT22;11740;51.168;4.112;2022-10-14T02:08:20;13.90;99.90
23143;DHT22;11740;51.168;4.112;2022-10-14T02:11:08;13.90;99.90
23143;DHT22;11740;51.168;4.112;2022-10-14T02:24:43;14.00;99.90
23143;DHT22;11740;51.168;4.112;2022-10-14T02:27:15;14.00;99.90
23143;DHT22;11740;51.168;4.112;2022-10-14T02:29:44;14.00;99.90
23143;DHT22;11740;51.168;4.112;2022-10-14T02:32:13;14.00;99.90
23143;DHT22;11740;51.168;4.112;2022-10-14T02:34:40;14.00;99.90
23143;DHT22;11740;51.168;4.112;2022-10-14T02:37:10;14.00;99.90
23143;DHT22;11740;51.168;4.112;2022-10-14T02:39:41;13.90;99.90
23143;DHT22;11740;51.168;4.112;2022-10-14T02:42:11;14.00;99.90
23143;DHT22;11740;51.168;4.112;2022-10-14T02:44:50;14.00;99.90
23143;DHT22;11740;51.168;4.112;2022-10-14T02:47:20;14.00;99.90
23143;DHT22;11740;51.168;4.112;2022-10-14T02:49:48;14.00;99.90
23143;DHT22;11740;51.168;4.112;2022-10-14T02:52:15;14.00;99.90
23143;DHT22;11740;51.168;4.112;2022-10-14T02:54:42;14.00;99.90
23143;DHT22;11740;51.168;4.112;2022-10-14T02:57:08;14.00;99.90
23143;DHT22;11740;51.168;4.112;2022-10-14T02:59:35;14.00;99.90
23143;DHT22;11740;51.168;4.112;2022-10-14T03:02:02;14.00;99.90
23143;DHT22;11740;51.168;4.112;2022-10-14T03:04:29;14.00;99.90
23143;DHT22;11740;51.168;4.112;2022-10-14T03:06:56;14.00;99.90
23143;DHT22;11740;51.168;4.112;2022-10-14T03:09:23;14.00;99.90
23143;DHT22;11740;51.168;4.112;2022-10-14T03:11:49;14.00;99.90
23143;DHT22;11740;51.168;4.112;2022-10-14T03:14:16;14.00;99.90
23143;DHT22;11740;51.168;4.112;2022-10-14T03:16:43;14.00;99.90
23143;DHT22;11740;51.168;4.112;2022-10-14T03:19:10;14.00;99.90
23143;DHT22;11740;51.168;4.112;2022-10-14T03:21:36;14.00;99.90
23143;DHT22;11740;51.168;4.112;2022-10-14T03:24:03;14.00;99.90
23143;DHT22;11740;51.168;4.112;2022-10-14T03:26:31;14.00;99.90
23143;DHT22;11740;51.168;4.112;2022-10-14T03:28:58;14.00;99.90
23143;DHT22;11740;51.168;4.112;2022-10-14T03:31:25;14.10;99.90
23143;DHT22;11740;51.168;4.112;2022-10-14T03:33:51;14.00;99.90
23143;DHT22;11740;51.168;4.112;2022-10-14T03:36:18;14.00;99.90
23143;DHT22;11740;51.168;4.112;2022-10-14T03:38:46;14.00;99.90
23143;DHT22;11740;51.168;4.112;2022-10-14T03:41:12;14.00;99.90
23143;DHT22;11740;51.168;4.112;2022-10-14T03:43:39;14.00;99.90
23143;DHT22;11740;51.168;4.112;2022-10-14T03:46:06;14.10;99.90
23143;DHT22;11740;51.168;4.112;2022-10-14T03:48:33;14.00;99.90
23143;DHT22;11740;51.168;4.112;2022-10-14T03:51:00;14.00;99.90
23143;DHT22;11740;51.168;4.112;2022-10-14T03:53:27;14.10;99.90
23143;DHT22;11740;51.168;4.112;2022-10-14T03:55:54;14.10;99.90
23143;DHT22;11740;51.168;4.112;2022-10-14T03:58:20;14.10;99.90
23143;DHT22;11740;51.168;4.112;2022-10-14T04:00:47;14.00;99.90
23143;DHT22;11740;51.168;4.112;2022-10-14T04:03:14;14.10;99.90
23143;DHT22;11740;51.168;4.112;2022-10-14T04:05:41;14.10;99.90
23143;DHT22;11740;51.168;4.112;2022-10-14T04:08:08;14.10;99.90
23143;DHT22;11740;51.168;4.112;2022-10-14T04:10:35;14.10;99.90
23143;DHT22;11740;51.168;4.112;2022-10-14T04:13:01;14.10;99.90
23143;DHT22;11740;51.168;4.112;2022-10-14T04:15:28;14.10;99.90
23143;DHT22;11740;51.168;4.112;2022-10-14T04:17:55;14.10;99.90
23143;DHT22;11740;51.168;4.112;2022-10-14T04:20:22;14.10;99.90
23143;DHT22;11740;51.168;4.112;2022-10-14T04:22:49;14.10;99.90
23143;DHT22;11740;51.168;4.112;2022-10-14T04:25:15;14.10;99.90
23143;DHT22;11740;51.168;4.112;2022-10-14T04:27:42;14.10;99.90
23143;DHT22;11740;51.168;4.112;2022-10-14T04:30:09;14.10;99.90
23143;DHT22;11740;51.168;4.112;2022-10-14T04:32:36;14.10;99.90
23143;DHT22;11740;51.168;4.112;2022-10-14T04:35:03;14.10;99.90
23143;DHT22;11740;51.168;4.112;2022-10-14T04:37:30;14.10;99.90
23143;DHT22;11740;51.168;4.112;2022-10-14T04:39:58;14.10;99.90
23143;DHT22;11740;51.168;4.112;2022-10-14T04:42:24;14.10;99.90
23143;DHT22;11740;51.168;4.112;2022-10-14T04:44:51;14.10;99.90
23143;DHT22;11740;51.168;4.112;2022-10-14T04:47:18;14.10;99.90
23143;DHT22;11740;51.168;4.112;2022-10-14T04:49:45;14.10;99.90
23143;DHT22;11740;51.168;4.112;2022-10-14T04:52:12;14.10;99.90
23143;DHT22;11740;51.168;4.112;2022-10-14T04:54:39;14.10;99.90
23143;DHT22;11740;51.168;4.112;2022-10-14T04:57:05;14.10;99.90
23143;DHT22;11740;51.168;4.112;2022-10-14T04:59:32;14.10;99.90
23143;DHT22;11740;51.168;4.112;2022-10-14T05:02:00;14.10;99.90
23143;DHT22;11740;51.168;4.112;2022-10-14T05:04:26;14.10;99.90
23143;DHT22;11740;51.168;4.112;2022-10-14T05:06:53;14.10;99.90
23143;DHT22;11740;51.168;4.112;2022-10-14T05:09:20;14.10;99.90
23143;DHT22;11740;51.168;4.112;2022-10-14T05:11:47;14.20;99.90
23143;DHT22;11740;51.168;4.112;2022-10-14T05:14:14;14.10;99.90
23143;DHT22;11740;51.168;4.112;2022-10-14T05:16:41;14.10;99.90
23143;DHT22;11740;51.168;4.112;2022-10-14T05:19:07;14.20;1.00
23143;DHT22;11740;51.168;4.112;2022-10-14T05:21:34;14.20;1.00
23143;DHT22;11740;51.168;4.112;2022-10-14T05:24:01;14.10;1.00
23143;DHT22;11740;51.168;4.112;2022-10-14T05:26:28;14.20;1.00
23143;DHT22;11740;51.168;4.112;2022-10-14T05:28:55;14.20;1.00
23143;DHT22;11740;51.168;4.112;2022-10-14T05:31:22;14.10;99.90
23143;DHT22;11740;51.168;4.112;2022-10-14T05:33:49;14.10;99.90
23143;DHT22;11740;51.168;4.112;2022-10-14T05:36:15;14.10;99.90
23143;DHT22;11740;51.168;4.112;2022-10-14T05:38:42;14.10;99.90
23143;DHT22;11740;51.168;4.112;2022-10-14T05:41:09;14.10;99.90
23143;DHT22;11740;51.168;4.112;2022-10-14T05:43:36;14.20;99.90
23143;DHT22;11740;51.168;4.112;2022-10-14T05:46:04;14.10;99.90
23143;DHT22;11740;51.168;4.112;2022-10-14T05:48:31;14.20;99.90
23143;DHT22;11740;51.168;4.112;2022-10-14T05:50:58;14.20;99.90
23143;DHT22;11740;51.168;4.112;2022-10-14T05:53:27;14.20;1.00
23143;DHT22;11740;51.168;4.112;2022-10-14T05:56:01;14.20;1.00
23143;DHT22;11740;51.168;4.112;2022-10-14T05:58:29;14.20;1.00
23143;DHT22;11740;51.168;4.112;2022-10-14T06:00:59;14.20;1.00
23143;DHT22;11740;51.168;4.112;2022-10-14T06:03:27;14.20;1.00
23143;DHT22;11740;51.168;4.112;2022-10-14T06:05:54;14.20;1.00
23143;DHT22;11740;51.168;4.112;2022-10-14T06:08:21;14.10;1.00
23143;DHT22;11740;51.168;4.112;2022-10-14T06:10:49;14.10;1.00
23143;DHT22;11740;51.168;4.112;2022-10-14T06:13:17;14.10;1.00
23143;DHT22;11740;51.168;4.112;2022-10-14T06:15:44;14.20;1.00
23143;DHT22;11740;51.168;4.112;2022-10-14T06:18:10;14.20;1.00
23143;DHT22;11740;51.168;4.112;2022-10-14T06:20:37;14.20;1.00
23143;DHT22;11740;51.168;4.112;2022-10-14T06:23:04;14.20;1.00
23143;DHT22;11740;51.168;4.112;2022-10-14T06:25:31;14.20;1.00
23143;DHT22;11740;51.168;4.112;2022-10-14T06:28:02;14.20;1.00
23143;DHT22;11740;51.168;4.112;2022-10-14T06:30:29;14.20;1.00
23143;DHT22;11740;51.168;4.112;2022-10-14T06:32:57;14.20;1.00
23143;DHT22;11740;51.168;4.112;2022-10-14T06:35:23;14.20;99.90
23143;DHT22;11740;51.168;4.112;2022-10-14T06:37:50;14.20;1.00
23143;DHT22;11740;51.168;4.112;2022-10-14T06:40:17;14.20;1.00
23143;DHT22;11740;51.168;4.112;2022-10-14T06:42:44;14.20;1.00
23143;DHT22;11740;51.168;4.112;2022-10-14T06:45:11;14.20;1.00
23143;DHT22;11740;51.168;4.112;2022-10-14T06:47:38;14.20;1.00
23143;DHT22;11740;51.168;4.112;2022-10-14T06:50:05;14.20;1.00
23143;DHT22;11740;51.168;4.112;2022-10-14T06:52:32;14.20;1.00
23143;DHT22;11740;51.168;4.112;2022-10-14T06:54:59;14.20;1.00
23143;DHT22;11740;51.168;4.112;2022-10-14T06:57:26;14.20;1.00
23143;DHT22;11740;51.168;4.112;2022-10-14T06:59:53;14.20;1.00
23143;DHT22;11740;51.168;4.112;2022-10-14T07:02:19;14.20;1.00
23143;DHT22;11740;51.168;4.112;2022-10-14T07:04:47;14.20;1.00
23143;DHT22;11740;51.168;4.112;2022-10-14T07:07:13;14.20;1.00
23143;DHT22;11740;51.168;4.112;2022-10-14T07:09:40;14.20;1.00
23143;DHT22;11740;51.168;4.112;2022-10-14T07:12:07;14.20;1.00
23143;DHT22;11740;51.168;4.112;2022-10-14T07:14:34;14.20;1.00
23143;DHT22;11740;51.168;4.112;2022-10-14T07:17:01;14.20;1.00
23143;DHT22;11740;51.168;4.112;2022-10-14T07:19:28;14.20;1.00
23143;DHT22;11740;51.168;4.112;2022-10-14T07:21:54;14.20;1.00
23143;DHT22;11740;51.168;4.112;2022-10-14T07:24:21;14.30;1.00
23143;DHT22;11740;51.168;4.112;2022-10-14T07:26:48;14.30;1.00
23143;DHT22;11740;51.168;4.112;2022-10-14T07:29:15;14.30;1.00
23143;DHT22;11740;51.168;4.112;2022-10-14T07:31:42;14.30;1.00
23143;DHT22;11740;51.168;4.112;2022-10-14T07:34:09;14.30;1.00
23143;DHT22;11740;51.168;4.112;2022-10-14T07:36:36;14.30;1.00
23143;DHT22;11740;51.168;4.112;2022-10-14T07:39:03;14.40;1.00
23143;DHT22;11740;51.168;4.112;2022-10-14T07:41:31;14.30;1.00
23143;DHT22;11740;51.168;4.112;2022-10-14T07:44:00;14.40;1.00
23143;DHT22;11740;51.168;4.112;2022-10-14T07:46:31;14.30;1.00
23143;DHT22;11740;51.168;4.112;2022-10-14T07:49:04;14.40;1.00
23143;DHT22;11740;51.168;4.112;2022-10-14T07:51:33;14.40;1.00
23143;DHT22;11740;51.168;4.112;2022-10-14T07:54:01;14.40;1.00
23143;DHT22;11740;51.168;4.112;2022-10-14T07:56:30;14.40;1.00
23143;DHT22;11740;51.168;4.112;2022-10-14T07:58:57;14.40;1.00
23143;DHT22;11740;51.168;4.112;2022-10-14T08:01:24;14.40;1.00
23143;DHT22;11740;51.168;4.112;2022-10-14T08:03:51;14.40;1.00
23143;DHT22;11740;51.168;4.112;2022-10-14T08:06:17;14.50;1.00
23143;DHT22;11740;51.168;4.112;2022-10-14T08:08:44;14.50;1.00
23143;DHT22;11740;51.168;4.112;2022-10-14T08:11:12;14.50;1.00
23143;DHT22;11740;51.168;4.112;2022-10-14T08:13:42;14.50;1.00
23143;DHT22;11740;51.168;4.112;2022-10-14T08:16:13;14.60;1.00
23143;DHT22;11740;51.168;4.112;2022-10-14T08:18:41;14.60;1.00
23143;DHT22;11740;51.168;4.112;2022-10-14T08:21:09;14.60;1.00
23143;DHT22;11740;51.168;4.112;2022-10-14T08:23:36;14.60;1.00
23143;DHT22;11740;51.168;4.112;2022-10-14T08:29:00;14.60;1.00
23143;DHT22;11740;51.168;4.112;2022-10-14T08:31:31;14.60;1.00
23143;DHT22;11740;51.168;4.112;2022-10-14T08:33:58;14.60;1.00
23143;DHT22;11740;51.168;4.112;2022-10-14T08:36:25;14.70;1.00
23143;DHT22;11740;51.168;4.112;2022-10-14T08:38:53;14.60;1.00
23143;DHT22;11740;51.168;4.112;2022-10-14T08:44:19;14.60;1.00
23143;DHT22;11740;51.168;4.112;2022-10-14T08:47:03;14.70;1.00
23143;DHT22;11740;51.168;4.112;2022-10-14T08:52:35;14.70;1.00
23143;DHT22;11740;51.168;4.112;2022-10-14T08:57:53;14.70;1.00
23143;DHT22;11740;51.168;4.112;2022-10-14T09:00:23;14.70;1.00
23143;DHT22;11740;51.168;4.112;2022-10-14T09:02:50;14.80;1.00
23143;DHT22;11740;51.168;4.112;2022-10-14T09:05:21;14.80;1.00
23143;DHT22;11740;51.168;4.112;2022-10-14T09:07:50;14.80;1.00
23143;DHT22;11740;51.168;4.112;2022-10-14T09:10:26;14.80;1.00
23143;DHT22;11740;51.168;4.112;2022-10-14T09:16:17;14.90;1.00
23143;DHT22;11740;51.168;4.112;2022-10-14T09:18:51;14.90;1.00
23143;DHT22;11740;51.168;4.112;2022-10-14T09:24:22;14.90;1.00
23143;DHT22;11740;51.168;4.112;2022-10-14T09:26:52;15.00;1.00
23143;DHT22;11740;51.168;4.112;2022-10-14T09:31:58;15.00;1.00
23143;DHT22;11740;51.168;4.112;2022-10-14T09:34:29;15.00;1.00
23143;DHT22;11740;51.168;4.112;2022-10-14T09:39:52;15.00;1.00
23143;DHT22;11740;51.168;4.112;2022-10-14T09:42:23;15.00;1.00
23143;DHT22;11740;51.168;4.112;2022-10-14T09:45:12;15.00;1.00
23143;DHT22;11740;51.168;4.112;2022-10-14T09:47:43;15.10;1.00
23143;DHT22;11740;51.168;4.112;2022-10-14T09:50:17;15.10;1.00
23143;DHT22;11740;51.168;4.112;2022-10-14T09:52:48;15.10;1.00
23143;DHT22;11740;51.168;4.112;2022-10-14T09:55:18;15.10;1.00
23143;DHT22;11740;51.168;4.112;2022-10-14T09:57:46;15.10;1.00
23143;DHT22;11740;51.168;4.112;2022-10-14T10:00:23;15.10;1.00
23143;DHT22;11740;51.168;4.112;2022-10-14T10:02:51;15.20;1.00
23143;DHT22;11740;51.168;4.112;2022-10-14T10:05:24;15.20;1.00
23143;DHT22;11740;51.168;4.112;2022-10-14T10:10:31;15.30;1.00
23143;DHT22;11740;51.168;4.112;2022-10-14T10:13:01;15.30;1.00
23143;DHT22;11740;51.168;4.112;2022-10-14T10:15:28;15.20;1.00
23143;DHT22;11740;51.168;4.112;2022-10-14T10:17:55;15.30;1.00
23143;DHT22;11740;51.168;4.112;2022-10-14T10:22:54;15.30;1.00
23143;DHT22;11740;51.168;4.112;2022-10-14T10:25:23;15.30;1.00
23143;DHT22;11740;51.168;4.112;2022-10-14T10:27:52;15.30;1.00
23143;DHT22;11740;51.168;4.112;2022-10-14T10:30:21;15.40;1.00
23143;DHT22;11740;51.168;4.112;2022-10-14T10:38:30;15.40;1.00
23143;DHT22;11740;51.168;4.112;2022-10-14T10:49:37;15.60;1.00
23143;DHT22;11740;51.168;4.112;2022-10-14T10:55:38;15.70;1.00
23143;DHT22;11740;51.168;4.112;2022-10-14T11:06:59;15.90;99.90
23143;DHT22;11740;51.168;4.112;2022-10-14T11:15:33;16.00;99.90
23143;DHT22;11740;51.168;4.112;2022-10-14T11:18:13;16.00;99.90
23143;DHT22;11740;51.168;4.112;2022-10-14T11:20:55;16.00;99.90
23143;DHT22;11740;51.168;4.112;2022-10-14T11:28:54;16.00;99.90
23143;DHT22;11740;51.168;4.112;2022-10-14T11:31:35;16.00;99.90
23143;DHT22;11740;51.168;4.112;2022-10-14T11:48:07;16.30;99.90
23143;DHT22;11740;51.168;4.112;2022-10-14T11:50:44;16.30;38.10
23143;DHT22;11740;51.168;4.112;2022-10-14T11:53:14;16.40;1.00
23143;DHT22;11740;51.168;4.112;2022-10-14T11:55:48;16.40;1.00
23143;DHT22;11740;51.168;4.112;2022-10-14T11:58:22;16.50;1.00
23143;DHT22;11740;51.168;4.112;2022-10-14T12:00:50;16.60;1.00
23143;DHT22;11740;51.168;4.112;2022-10-14T12:03:27;16.70;1.00
23143;DHT22;11740;51.168;4.112;2022-10-14T12:16:47;16.90;99.90
23143;DHT22;11740;51.168;4.112;2022-10-14T12:19:18;17.00;99.90
23143;DHT22;11740;51.168;4.112;2022-10-14T12:21:53;17.00;99.90
23143;DHT22;11740;51.168;4.112;2022-10-14T12:24:25;17.00;16.50
23143;DHT22;11740;51.168;4.112;2022-10-14T12:26:56;17.00;1.00
23143;DHT22;11740;51.168;4.112;2022-10-14T12:29:25;17.10;1.00
23143;DHT22;11740;51.168;4.112;2022-10-14T12:34:40;17.10;1.00
23143;DHT22;11740;51.168;4.112;2022-10-14T12:45:21;17.20;1.00
23143;DHT22;11740;51.168;4.112;2022-10-14T12:50:36;17.20;1.00
23143;DHT22;11740;51.168;4.112;2022-10-14T12:53:22;17.30;1.00
23143;DHT22;11740;51.168;4.112;2022-10-14T12:55:52;17.30;1.00
23143;DHT22;11740;51.168;4.112;2022-10-14T12:58:25;17.40;56.30
23143;DHT22;11740;51.168;4.112;2022-10-14T13:00:56;17.40;1.00
23143;DHT22;11740;51.168;4.112;2022-10-14T13:04:15;17.40;1.00
23143;DHT22;11740;51.168;4.112;2022-10-14T13:11:37;17.60;1.00
23143;DHT22;11740;51.168;4.112;2022-10-14T13:16:58;17.60;1.00
23143;DHT22;11740;51.168;4.112;2022-10-14T13:21:59;17.70;1.00
23143;DHT22;11740;51.168;4.112;2022-10-14T13:24:30;17.80;99.90
23143;DHT22;11740;51.168;4.112;2022-10-14T13:27:12;17.80;1.00
23143;DHT22;11740;51.168;4.112;2022-10-14T13:29:59;17.80;1.00
23143;DHT22;11740;51.168;4.112;2022-10-14T13:32:40;17.80;1.00
23143;DHT22;11740;51.168;4.112;2022-10-14T13:38:10;17.80;1.00
23143;DHT22;11740;51.168;4.112;2022-10-14T13:40:42;17.80;1.00
23143;DHT22;11740;51.168;4.112;2022-10-14T13:45:46;17.80;1.00
23143;DHT22;11740;51.168;4.112;2022-10-14T13:48:16;17.80;1.00
23143;DHT22;11740;51.168;4.112;2022-10-14T13:50:47;17.80;1.00
23143;DHT22;11740;51.168;4.112;2022-10-14T13:53:17;17.80;1.00
23143;DHT22;11740;51.168;4.112;2022-10-14T13:55:47;17.70;99.90
23143;DHT22;11740;51.168;4.112;2022-10-14T13:58:20;17.70;99.90
23143;DHT22;11740;51.168;4.112;2022-10-14T14:03:24;17.70;1.00
23143;DHT22;11740;51.168;4.112;2022-10-14T14:05:51;17.70;99.90
23143;DHT22;11740;51.168;4.112;2022-10-14T14:08:25;17.60;1.00
23143;DHT22;11740;51.168;4.112;2022-10-14T14:11:06;17.70;99.90
23143;DHT22;11740;51.168;4.112;2022-10-14T14:16:49;17.80;99.90
23143;DHT22;11740;51.168;4.112;2022-10-14T14:19:20;17.80;99.90
23143;DHT22;11740;51.168;4.112;2022-10-14T14:24:37;17.70;99.90
23143;DHT22;11740;51.168;4.112;2022-10-14T14:27:04;17.80;99.90
23143;DHT22;11740;51.168;4.112;2022-10-14T14:29:31;17.80;1.00
23143;DHT22;11740;51.168;4.112;2022-10-14T14:32:00;17.80;1.00
23143;DHT22;11740;51.168;4.112;2022-10-14T14:34:33;17.70;1.00
23143;DHT22;11740;51.168;4.112;2022-10-14T14:37:01;17.60;99.90
23143;DHT22;11740;51.168;4.112;2022-10-14T14:42:23;17.60;1.00
23143;DHT22;11740;51.168;4.112;2022-10-14T14:44:56;17.60;1.00
23143;DHT22;11740;51.168;4.112;2022-10-14T14:47:25;17.60;1.00
23143;DHT22;11740;51.168;4.112;2022-10-14T14:49:53;17.60;1.00
23143;DHT22;11740;51.168;4.112;2022-10-14T14:52:41;17.60;1.00
23143;DHT22;11740;51.168;4.112;2022-10-14T14:58:00;17.50;99.90
23143;DHT22;11740;51.168;4.112;2022-10-14T15:00:28;17.50;99.90
23143;DHT22;11740;51.168;4.112;2022-10-14T15:02:58;17.50;99.90
23143;DHT22;11740;51.168;4.112;2022-10-14T15:05:26;17.60;1.00
23143;DHT22;11740;51.168;4.112;2022-10-14T15:07:53;17.50;1.00
23143;DHT22;11740;51.168;4.112;2022-10-14T15:10:25;17.60;99.90
23143;DHT22;11740;51.168;4.112;2022-10-14T15:12:56;17.50;1.00
23143;DHT22;11740;51.168;4.112;2022-10-14T15:15:26;17.60;1.00
23143;DHT22;11740;51.168;4.112;2022-10-14T15:20:41;17.60;20.60
23143;DHT22;11740;51.168;4.112;2022-10-14T15:26:19;17.60;48.50
23143;DHT22;11740;51.168;4.112;2022-10-14T15:29:00;17.70;1.00
23143;DHT22;11740;51.168;4.112;2022-10-14T15:31:31;17.70;99.90
23143;DHT22;11740;51.168;4.112;2022-10-14T15:33:59;17.70;99.90
23143;DHT22;11740;51.168;4.112;2022-10-14T15:36:27;17.60;99.90
23143;DHT22;11740;51.168;4.112;2022-10-14T15:38:59;17.60;99.90
23143;DHT22;11740;51.168;4.112;2022-10-14T15:41:28;17.60;15.70
23143;DHT22;11740;51.168;4.112;2022-10-14T15:43:55;17.60;99.90
23143;DHT22;11740;51.168;4.112;2022-10-14T15:46:22;17.50;1.00
23143;DHT22;11740;51.168;4.112;2022-10-14T15:49:12;17.50;99.90
23143;DHT22;11740;51.168;4.112;2022-10-14T15:51:41;17.60;99.90
23143;DHT22;11740;51.168;4.112;2022-10-14T15:54:09;17.50;1.00
23143;DHT22;11740;51.168;4.112;2022-10-14T15:56:36;17.40;14.20
23143;DHT22;11740;51.168;4.112;2022-10-14T15:59:04;17.40;12.20
23143;DHT22;11740;51.168;4.112;2022-10-14T16:01:32;17.40;1.00
23143;DHT22;11740;51.168;4.112;2022-10-14T16:04:01;17.40;1.00
23143;DHT22;11740;51.168;4.112;2022-10-14T16:06:29;17.40;64.30
23143;DHT22;11740;51.168;4.112;2022-10-14T16:08:57;17.30;1.00
23143;DHT22;11740;51.168;4.112;2022-10-14T16:11:25;17.40;34.60
23143;DHT22;11740;51.168;4.112;2022-10-14T16:13:53;17.30;15.60
23143;DHT22;11740;51.168;4.112;2022-10-14T16:16:25;17.30;1.00
23143;DHT22;11740;51.168;4.112;2022-10-14T16:18:57;17.20;1.00
23143;DHT22;11740;51.168;4.112;2022-10-14T16:21:27;17.20;47.40
23143;DHT22;11740;51.168;4.112;2022-10-14T16:23:55;17.30;99.90
23143;DHT22;11740;51.168;4.112;2022-10-14T16:26:22;17.30;99.90
23143;DHT22;11740;51.168;4.112;2022-10-14T16:28:48;17.20;38.30
23143;DHT22;11740;51.168;4.112;2022-10-14T16:31:16;17.30;99.90
23143;DHT22;11740;51.168;4.112;2022-10-14T16:33:42;17.20;99.90
23143;DHT22;11740;51.168;4.112;2022-10-14T16:36:14;17.20;99.90
23143;DHT22;11740;51.168;4.112;2022-10-14T16:38:41;17.20;99.90
23143;DHT22;11740;51.168;4.112;2022-10-14T16:41:08;17.10;99.90
23143;DHT22;11740;51.168;4.112;2022-10-14T16:43:36;17.10;99.90
23143;DHT22;11740;51.168;4.112;2022-10-14T16:46:03;17.10;99.90
23143;DHT22;11740;51.168;4.112;2022-10-14T16:48:33;17.00;99.90
23143;DHT22;11740;51.168;4.112;2022-10-14T16:51:01;17.00;99.90
23143;DHT22;11740;51.168;4.112;2022-10-14T16:53:29;17.00;99.90
23143;DHT22;11740;51.168;4.112;2022-10-14T16:56:22;16.90;99.90
23143;DHT22;11740;51.168;4.112;2022-10-14T16:59:09;16.90;99.90
23143;DHT22;11740;51.168;4.112;2022-10-14T17:01:38;16.80;99.90
23143;DHT22;11740;51.168;4.112;2022-10-14T17:04:05;16.80;99.90
23143;DHT22;11740;51.168;4.112;2022-10-14T17:06:32;16.80;99.90
23143;DHT22;11740;51.168;4.112;2022-10-14T17:08:59;16.80;99.90
23143;DHT22;11740;51.168;4.112;2022-10-14T17:11:26;16.80;99.90
23143;DHT22;11740;51.168;4.112;2022-10-14T17:13:55;16.80;99.90
23143;DHT22;11740;51.168;4.112;2022-10-14T17:16:23;16.60;99.90
23143;DHT22;11740;51.168;4.112;2022-10-14T17:18:51;16.60;99.90
23143;DHT22;11740;51.168;4.112;2022-10-14T17:21:18;16.60;99.90
23143;DHT22;11740;51.168;4.112;2022-10-14T17:23:45;16.60;99.90
23143;DHT22;11740;51.168;4.112;2022-10-14T17:26:13;16.60;99.90
23143;DHT22;11740;51.168;4.112;2022-10-14T17:28:41;16.50;1.00
23143;DHT22;11740;51.168;4.112;2022-10-14T17:31:09;16.50;99.90
23143;DHT22;11740;51.168;4.112;2022-10-14T17:33:38;16.50;1.00
23143;DHT22;11740;51.168;4.112;2022-10-14T17:36:06;16.50;1.00
23143;DHT22;11740;51.168;4.112;2022-10-14T17:38:34;16.50;99.90
23143;DHT22;11740;51.168;4.112;2022-10-14T17:41:02;16.50;99.90
23143;DHT22;11740;51.168;4.112;2022-10-14T17:43:30;16.40;1.00
23143;DHT22;11740;51.168;4.112;2022-10-14T17:46:07;16.50;99.90
23143;DHT22;11740;51.168;4.112;2022-10-14T17:48:39;16.30;1.00
23143;DHT22;11740;51.168;4.112;2022-10-14T17:51:11;16.20;1.00
23143;DHT22;11740;51.168;4.112;2022-10-14T17:53:38;16.20;1.00
23143;DHT22;11740;51.168;4.112;2022-10-14T17:56:06;16.20;1.00
23143;DHT22;11740;51.168;4.112;2022-10-14T17:58:37;16.10;1.00
23143;DHT22;11740;51.168;4.112;2022-10-14T18:01:12;16.10;1.00
23143;DHT22;11740;51.168;4.112;2022-10-14T18:03:41;16.00;1.00
23143;DHT22;11740;51.168;4.112;2022-10-14T18:08:39;16.10;1.00
23143;DHT22;11740;51.168;4.112;2022-10-14T18:11:07;16.20;1.00
23143;DHT22;11740;51.168;4.112;2022-10-14T18:13:36;16.10;1.00
23143;DHT22;11740;51.168;4.112;2022-10-14T18:16:11;16.10;1.00
23143;DHT22;11740;51.168;4.112;2022-10-14T18:18:40;16.10;1.00
23143;DHT22;11740;51.168;4.112;2022-10-14T18:21:08;16.00;99.90
23143;DHT22;11740;51.168;4.112;2022-10-14T18:23:36;15.90;1.00
23143;DHT22;11740;51.168;4.112;2022-10-14T18:26:06;15.80;1.00
23143;DHT22;11740;51.168;4.112;2022-10-14T18:28:40;15.70;1.00
23143;DHT22;11740;51.168;4.112;2022-10-14T18:31:12;15.80;1.00
23143;DHT22;11740;51.168;4.112;2022-10-14T18:33:46;15.70;1.00
23143;DHT22;11740;51.168;4.112;2022-10-14T18:36:15;15.70;1.00
23143;DHT22;11740;51.168;4.112;2022-10-14T18:38:48;15.70;1.00
23143;DHT22;11740;51.168;4.112;2022-10-14T18:41:17;15.70;1.00
23143;DHT22;11740;51.168;4.112;2022-10-14T18:43:45;15.70;1.00